Terminal Aerodrome Forecast
Issued by NWS Twin Cities, MN

Home | Current Version | Previous Version | Text Only | Print | Product List | Glossary On
Versions: 1 2 3 4 5 6 7 8 9 10 11 12 13 14 15
219
FTUS43 KMPX 252327
TAFEAU
TAF
KEAU 252327Z 2600/2624 34005KT 6SM BR VCSH SCT015 BKN050
     FM260100 01004KT 4SM BR VCTS SCT015 OVC030CB
     FM260400 VRB03KT 2SM -SHRA BR OVC003
     FM261200 24004KT 4SM -SHRA BR OVC008
     FM261700 26006KT P6SM OVC010
     FM262000 28010KT P6SM OVC015=

USA.gov is the U.S. government's official web portal to all federal, state and local government web resources and services.